sensor_id;sensor_type;location;lat;lon;timestamp;pressure;altitude;pressure_sealevel;temperature;humidity
42067;BME280;27734;47.028;28.820;2023-02-08T00:01:31;102669.72;;;-3.08;68.51
42067;BME280;27734;47.028;28.820;2023-02-08T00:04:03;102685.84;;;-3.09;67.69
42067;BME280;27734;47.028;28.820;2023-02-08T00:06:35;102680.69;;;-3.16;66.98
42067;BME280;27734;47.028;28.820;2023-02-08T00:09:08;102683.40;;;-3.21;67.28
42067;BME280;27734;47.028;28.820;2023-02-08T00:11:40;102687.23;;;-3.25;67.66
42067;BME280;27734;47.028;28.820;2023-02-08T00:14:12;102691.08;;;-3.29;67.47
42067;BME280;27734;47.028;28.820;2023-02-08T00:16:45;102687.94;;;-3.33;67.39
42067;BME280;27734;47.028;28.820;2023-02-08T00:19:17;102690.50;;;-3.33;67.33
42067;BME280;27734;47.028;28.820;2023-02-08T00:21:49;102690.30;;;-3.35;67.89
42067;BME280;27734;47.028;28.820;2023-02-08T00:24:21;102699.63;;;-3.35;68.52
42067;BME280;27734;47.028;28.820;2023-02-08T00:26:54;102692.88;;;-3.35;67.94
42067;BME280;27734;47.028;28.820;2023-02-08T00:29:26;102701.48;;;-3.34;68.23
42067;BME280;27734;47.028;28.820;2023-02-08T00:31:58;102693.59;;;-3.36;67.71
42067;BME280;27734;47.028;28.820;2023-02-08T00:34:30;102700.91;;;-3.39;68.50
42067;BME280;27734;47.028;28.820;2023-02-08T00:37:03;102707.30;;;-3.42;67.44
42067;BME280;27734;47.028;28.820;2023-02-08T00:39:35;102702.11;;;-3.50;67.49
42067;BME280;27734;47.028;28.820;2023-02-08T00:42:08;102707.95;;;-3.51;68.16
42067;BME280;27734;47.028;28.820;2023-02-08T00:44:40;102711.78;;;-3.54;68.24
42067;BME280;27734;47.028;28.820;2023-02-08T00:47:12;102715.06;;;-3.55;68.77
42067;BME280;27734;47.028;28.820;2023-02-08T00:49:44;102721.66;;;-3.57;68.78
42067;BME280;27734;47.028;28.820;2023-02-08T00:52:19;102718.90;;;-3.59;69.03
42067;BME280;27734;47.028;28.820;2023-02-08T00:54:51;102719.81;;;-3.58;68.98
42067;BME280;27734;47.028;28.820;2023-02-08T00:57:23;102722.57;;;-3.57;68.18
42067;BME280;27734;47.028;28.820;2023-02-08T00:59:55;102725.73;;;-3.52;69.33
42067;BME280;27734;47.028;28.820;2023-02-08T01:02:28;102727.06;;;-3.49;68.37
42067;BME280;27734;47.028;28.820;2023-02-08T01:05:00;102727.45;;;-3.46;69.07
42067;BME280;27734;47.028;28.820;2023-02-08T01:07:32;102742.66;;;-3.47;69.07
42067;BME280;27734;47.028;28.820;2023-02-08T01:10:08;102751.95;;;-3.55;69.18
42067;BME280;27734;47.028;28.820;2023-02-08T01:12:42;102754.31;;;-3.56;68.99
42067;BME280;27734;47.028;28.820;2023-02-08T01:15:14;102757.91;;;-3.62;68.53
42067;BME280;27734;47.028;28.820;2023-02-08T01:17:48;102761.73;;;-3.65;69.38
42067;BME280;27734;47.028;28.820;2023-02-08T01:20:24;102764.97;;;-3.73;68.88
42067;BME280;27734;47.028;28.820;2023-02-08T01:22:57;102761.81;;;-3.78;69.03
42067;BME280;27734;47.028;28.820;2023-02-08T01:25:29;102763.27;;;-3.80;69.36
42067;BME280;27734;47.028;28.820;2023-02-08T01:28:02;102767.66;;;-3.79;68.46
42067;BME280;27734;47.028;28.820;2023-02-08T01:30:34;102764.50;;;-3.84;69.13
42067;BME280;27734;47.028;28.820;2023-02-08T01:33:07;102767.06;;;-3.84;69.33
42067;BME280;27734;47.028;28.820;2023-02-08T01:35:40;102780.83;;;-3.83;68.71
42067;BME280;27734;47.028;28.820;2023-02-08T01:38:12;102770.17;;;-3.86;68.95
42067;BME280;27734;47.028;28.820;2023-02-08T01:40:44;102781.86;;;-3.88;69.37
42067;BME280;27734;47.028;28.820;2023-02-08T01:43:23;102780.86;;;-3.96;68.86
42067;BME280;27734;47.028;28.820;2023-02-08T01:45:56;102772.86;;;-3.92;70.19
42067;BME280;27734;47.028;28.820;2023-02-08T01:48:31;102789.95;;;-3.85;70.04
42067;BME280;27734;47.028;28.820;2023-02-08T01:51:11;102789.24;;;-3.84;69.80
42067;BME280;27734;47.028;28.820;2023-02-08T01:53:45;102789.05;;;-3.86;69.75
42067;BME280;27734;47.028;28.820;2023-02-08T01:56:24;102801.47;;;-3.89;69.09
42067;BME280;27734;47.028;28.820;2023-02-08T01:59:00;102805.34;;;-3.85;69.32
42067;BME280;27734;47.028;28.820;2023-02-08T02:01:34;102801.67;;;-3.87;69.94
42067;BME280;27734;47.028;28.820;2023-02-08T02:04:07;102803.13;;;-3.89;69.99
42067;BME280;27734;47.028;28.820;2023-02-08T02:06:42;102812.98;;;-3.92;70.59
42067;BME280;27734;47.028;28.820;2023-02-08T02:09:18;102810.93;;;-3.95;70.10
42067;BME280;27734;47.028;28.820;2023-02-08T02:11:52;102813.30;;;-3.97;70.32
42067;BME280;27734;47.028;28.820;2023-02-08T02:14:25;102808.67;;;-3.99;70.34
42067;BME280;27734;47.028;28.820;2023-02-08T02:16:59;102815.46;;;-4.00;70.38
42067;BME280;27734;47.028;28.820;2023-02-08T02:19:39;102826.63;;;-3.99;70.43
42067;BME280;27734;47.028;28.820;2023-02-08T02:22:34;102830.84;;;-4.00;70.48
42067;BME280;27734;47.028;28.820;2023-02-08T02:25:23;102831.89;;;-4.05;72.58
42067;BME280;27734;47.028;28.820;2023-02-08T02:28:26;102833.11;;;-4.08;71.11
42067;BME280;27734;47.028;28.820;2023-02-08T02:34:03;102839.49;;;-4.12;70.87
42067;BME280;27734;47.028;28.820;2023-02-08T02:36:42;102847.48;;;-4.16;71.00
42067;BME280;27734;47.028;28.820;2023-02-08T02:39:22;102850.80;;;-4.17;71.13
42067;BME280;27734;47.028;28.820;2023-02-08T02:41:59;102855.52;;;-4.20;71.03
42067;BME280;27734;47.028;28.820;2023-02-08T02:44:52;102861.69;;;-4.25;72.49
42067;BME280;27734;47.028;28.820;2023-02-08T02:47:29;102864.25;;;-4.25;70.92
42067;BME280;27734;47.028;28.820;2023-02-08T02:50:09;102870.80;;;-4.27;71.29
42067;BME280;27734;47.028;28.820;2023-02-08T02:52:46;102868.23;;;-4.27;71.07
42067;BME280;27734;47.028;28.820;2023-02-08T02:55:23;102868.97;;;-4.28;71.47
42067;BME280;27734;47.028;28.820;2023-02-08T02:57:57;102870.92;;;-4.33;71.74
42067;BME280;27734;47.028;28.820;2023-02-08T03:00:33;102878.41;;;-4.35;71.91
42067;BME280;27734;47.028;28.820;2023-02-08T03:03:15;102871.43;;;-4.36;72.30
42067;BME280;27734;47.028;28.820;2023-02-08T03:05:53;102875.53;;;-4.43;72.29
42067;BME280;27734;47.028;28.820;2023-02-08T03:08:48;102881.16;;;-4.46;71.79
42067;BME280;27734;47.028;28.820;2023-02-08T03:11:27;102879.84;;;-4.49;72.08
42067;BME280;27734;47.028;28.820;2023-02-08T03:14:17;102874.80;;;-4.55;71.81
42067;BME280;27734;47.028;28.820;2023-02-08T03:17:13;102879.52;;;-4.58;71.94
42067;BME280;27734;47.028;28.820;2023-02-08T03:19:55;102879.84;;;-4.62;72.57
42067;BME280;27734;47.028;28.820;2023-02-08T03:22:33;102879.43;;;-4.65;73.13
42067;BME280;27734;47.028;28.820;2023-02-08T03:25:12;102873.16;;;-4.67;72.40
42067;BME280;27734;47.028;28.820;2023-02-08T03:27:56;102883.94;;;-4.70;72.69
42067;BME280;27734;47.028;28.820;2023-02-08T03:30:35;102891.41;;;-4.72;73.14
42067;BME280;27734;47.028;28.820;2023-02-08T03:33:20;102887.70;;;-4.74;72.73
42067;BME280;27734;47.028;28.820;2023-02-08T03:36:00;102900.92;;;-4.71;72.81
42067;BME280;27734;47.028;28.820;2023-02-08T03:38:37;102902.78;;;-4.70;72.35
42067;BME280;27734;47.028;28.820;2023-02-08T03:41:15;102902.78;;;-4.70;72.42
42067;BME280;27734;47.028;28.820;2023-02-08T03:43:53;102901.66;;;-4.72;72.42
42067;BME280;27734;47.028;28.820;2023-02-08T03:46:29;102901.45;;;-4.73;72.56
42067;BME280;27734;47.028;28.820;2023-02-08T03:49:06;102910.05;;;-4.73;72.31
42067;BME280;27734;47.028;28.820;2023-02-08T03:51:39;102904.22;;;-4.72;72.54
42067;BME280;27734;47.028;28.820;2023-02-08T03:54:16;102913.03;;;-4.70;72.35
42067;BME280;27734;47.028;28.820;2023-02-08T03:56:55;102914.14;;;-4.67;72.39
42067;BME280;27734;47.028;28.820;2023-02-08T03:59:33;102922.16;;;-4.72;72.63
42067;BME280;27734;47.028;28.820;2023-02-08T04:02:08;102925.42;;;-4.73;72.62
42067;BME280;27734;47.028;28.820;2023-02-08T04:04:45;102923.56;;;-4.74;71.78
42067;BME280;27734;47.028;28.820;2023-02-08T04:07:18;102935.25;;;-4.76;72.47
42067;BME280;27734;47.028;28.820;2023-02-08T04:09:51;102934.13;;;-4.78;72.43
42067;BME280;27734;47.028;28.820;2023-02-08T04:12:23;102931.86;;;-4.82;72.07
42067;BME280;27734;47.028;28.820;2023-02-08T04:14:55;102929.09;;;-4.83;72.46
42067;BME280;27734;47.028;28.820;2023-02-08T04:17:27;102941.48;;;-4.87;72.19
42067;BME280;27734;47.028;28.820;2023-02-08T04:19:59;102950.60;;;-4.89;72.32
42067;BME280;27734;47.028;28.820;2023-02-08T04:22:32;102965.55;;;-4.92;72.17
42067;BME280;27734;47.028;28.820;2023-02-08T04:25:05;102972.11;;;-4.94;72.24
42067;BME280;27734;47.028;28.820;2023-02-08T04:27:37;102968.60;;;-4.94;72.28
42067;BME280;27734;47.028;28.820;2023-02-08T04:30:12;102971.16;;;-4.94;72.29
42067;BME280;27734;47.028;28.820;2023-02-08T04:32:44;102978.63;;;-4.96;72.09
42067;BME280;27734;47.028;28.820;2023-02-08T04:35:17;102980.07;;;-4.98;72.03
42067;BME280;27734;47.028;28.820;2023-02-08T04:37:49;102986.84;;;-4.98;72.26
42067;BME280;27734;47.028;28.820;2023-02-08T04:40:21;102993.58;;;-4.99;72.10
42067;BME280;27734;47.028;28.820;2023-02-08T04:42:53;102996.24;;;-5.04;72.22
42067;BME280;27734;47.028;28.820;2023-02-08T04:45:26;103001.15;;;-5.06;72.08
42067;BME280;27734;47.028;28.820;2023-02-08T04:48:01;102993.75;;;-5.10;72.02
42067;BME280;27734;47.028;28.820;2023-02-08T04:50:34;103002.44;;;-5.15;72.21
42067;BME280;27734;47.028;28.820;2023-02-08T04:53:06;103008.05;;;-5.18;71.91
42067;BME280;27734;47.028;28.820;2023-02-08T04:55:38;103012.73;;;-5.21;72.51
42067;BME280;27734;47.028;28.820;2023-02-08T04:58:10;103009.75;;;-5.24;71.96
42067;BME280;27734;47.028;28.820;2023-02-08T05:00:43;103023.98;;;-5.26;72.19
42067;BME280;27734;47.028;28.820;2023-02-08T05:03:15;103021.70;;;-5.30;72.07
42067;BME280;27734;47.028;28.820;2023-02-08T05:05:52;103022.22;;;-5.33;71.74
42067;BME280;27734;47.028;28.820;2023-02-08T05:08:27;103015.94;;;-5.35;72.40
42067;BME280;27734;47.028;28.820;2023-02-08T05:10:59;103019.93;;;-5.37;72.19
42067;BME280;27734;47.028;28.820;2023-02-08T05:13:31;103027.83;;;-5.35;72.11
42067;BME280;27734;47.028;28.820;2023-02-08T05:16:04;103036.20;;;-5.36;72.08
42067;BME280;27734;47.028;28.820;2023-02-08T05:18:36;103040.41;;;-5.37;72.21
42067;BME280;27734;47.028;28.820;2023-02-08T05:21:08;103052.29;;;-5.37;72.32
42067;BME280;27734;47.028;28.820;2023-02-08T05:23:41;103056.24;;;-5.39;72.18
42067;BME280;27734;47.028;28.820;2023-02-08T05:26:13;103066.27;;;-5.41;72.61
42067;BME280;27734;47.028;28.820;2023-02-08T05:28:46;103071.17;;;-5.43;72.07
42067;BME280;27734;47.028;28.820;2023-02-08T05:31:21;103079.36;;;-5.45;72.20
42067;BME280;27734;47.028;28.820;2023-02-08T05:33:54;103077.07;;;-5.49;72.46
42067;BME280;27734;47.028;28.820;2023-02-08T05:36:26;103096.41;;;-5.51;72.46
42067;BME280;27734;47.028;28.820;2023-02-08T05:38:59;103097.11;;;-5.52;72.04
42067;BME280;27734;47.028;28.820;2023-02-08T05:41:31;103094.33;;;-5.54;72.03
42067;BME280;27734;47.028;28.820;2023-02-08T05:44:04;103093.63;;;-5.53;72.09
42067;BME280;27734;47.028;28.820;2023-02-08T05:46:36;103087.34;;;-5.55;71.75
42067;BME280;27734;47.028;28.820;2023-02-08T05:49:08;103097.11;;;-5.52;72.15
42067;BME280;27734;47.028;28.820;2023-02-08T05:51:41;103097.33;;;-5.51;72.35
42067;BME280;27734;47.028;28.820;2023-02-08T05:54:15;103103.87;;;-5.53;72.46
42067;BME280;27734;47.028;28.820;2023-02-08T05:56:48;103103.87;;;-5.53;72.21
42067;BME280;27734;47.028;28.820;2023-02-08T05:59:20;103107.77;;;-5.49;72.16
42067;BME280;27734;47.028;28.820;2023-02-08T06:01:52;103107.73;;;-5.44;72.29
42067;BME280;27734;47.028;28.820;2023-02-08T06:04:24;103116.97;;;-5.38;73.03
42067;BME280;27734;47.028;28.820;2023-02-08T06:06:57;103119.96;;;-5.35;72.43
42067;BME280;27734;47.028;28.820;2023-02-08T06:09:29;103113.41;;;-5.33;72.61
42067;BME280;27734;47.028;28.820;2023-02-08T06:12:01;103118.48;;;-5.28;72.34
42067;BME280;27734;47.028;28.820;2023-02-08T06:14:34;103126.08;;;-5.22;72.30
42067;BME280;27734;47.028;28.820;2023-02-08T06:17:06;103132.58;;;-5.18;72.13
42067;BME280;27734;47.028;28.820;2023-02-08T06:19:39;103133.48;;;-5.18;72.54
42067;BME280;27734;47.028;28.820;2023-02-08T06:22:12;103107.73;;;-5.25;72.46
42067;BME280;27734;47.028;28.820;2023-02-08T06:24:44;103133.92;;;-5.15;72.35
42067;BME280;27734;47.028;28.820;2023-02-08T06:27:20;103125.33;;;-5.15;72.29
42067;BME280;27734;47.028;28.820;2023-02-08T06:29:54;103123.68;;;-5.15;72.21
42067;BME280;27734;47.028;28.820;2023-02-08T06:32:27;103133.01;;;-5.15;72.13
42067;BME280;27734;47.028;28.820;2023-02-08T06:34:59;103127.67;;;-5.17;72.06
42067;BME280;27734;47.028;28.820;2023-02-08T06:37:31;103136.97;;;-5.17;72.26
42067;BME280;27734;47.028;28.820;2023-02-08T06:40:05;103142.60;;;-5.20;72.06
42067;BME280;27734;47.028;28.820;2023-02-08T06:42:37;103144.43;;;-5.19;72.28
42067;BME280;27734;47.028;28.820;2023-02-08T06:45:12;103145.59;;;-5.17;72.17
42067;BME280;27734;47.028;28.820;2023-02-08T06:47:45;103151.36;;;-5.12;72.04
42067;BME280;27734;47.028;28.820;2023-02-08T06:50:17;103150.84;;;-5.10;72.34
42067;BME280;27734;47.028;28.820;2023-02-08T06:52:50;103157.78;;;-5.03;72.09
42067;BME280;27734;47.028;28.820;2023-02-08T06:55:22;103163.59;;;-5.04;72.02
42067;BME280;27734;47.028;28.820;2023-02-08T06:57:55;103164.03;;;-5.01;71.94
42067;BME280;27734;47.028;28.820;2023-02-08T07:00:30;103180.30;;;-5.00;71.95
42067;BME280;27734;47.028;28.820;2023-02-08T07:03:03;103171.49;;;-5.02;71.84
42067;BME280;27734;47.028;28.820;2023-02-08T07:05:36;103175.70;;;-5.03;71.77
42067;BME280;27734;47.028;28.820;2023-02-08T07:08:09;103173.36;;;-5.01;71.64
42067;BME280;27734;47.028;28.820;2023-02-08T07:10:44;103177.05;;;-4.99;71.42
42067;BME280;27734;47.028;28.820;2023-02-08T07:13:19;103183.52;;;-4.96;71.42
42067;BME280;27734;47.028;28.820;2023-02-08T07:15:54;103181.60;;;-4.91;71.55
42067;BME280;27734;47.028;28.820;2023-02-08T07:18:26;103190.94;;;-4.92;71.41
42067;BME280;27734;47.028;28.820;2023-02-08T07:20:59;103181.69;;;-4.97;71.45
42067;BME280;27734;47.028;28.820;2023-02-08T07:23:31;103185.16;;;-4.96;71.51
42067;BME280;27734;47.028;28.820;2023-02-08T07:26:07;103187.94;;;-4.95;71.44
42067;BME280;27734;47.028;28.820;2023-02-08T07:28:40;103188.31;;;-4.86;71.59
42067;BME280;27734;47.028;28.820;2023-02-08T07:31:15;103182.19;;;-4.81;71.54
42067;BME280;27734;47.028;28.820;2023-02-08T07:33:48;103184.88;;;-4.74;71.50
42067;BME280;27734;47.028;28.820;2023-02-08T07:36:21;103187.33;;;-4.62;71.46
42067;BME280;27734;47.028;28.820;2023-02-08T07:38:55;103196.36;;;-4.59;71.23
42067;BME280;27734;47.028;28.820;2023-02-08T07:41:27;103195.34;;;-4.54;71.27
42067;BME280;27734;47.028;28.820;2023-02-08T07:44:03;103199.71;;;-4.47;71.21
42067;BME280;27734;47.028;28.820;2023-02-08T07:46:36;103200.98;;;-4.38;71.70
42067;BME280;27734;47.028;28.820;2023-02-08T07:49:08;103198.75;;;-4.29;71.31
42067;BME280;27734;47.028;28.820;2023-02-08T07:51:41;103205.67;;;-4.22;70.56
42067;BME280;27734;47.028;28.820;2023-02-08T07:54:17;103196.13;;;-4.23;70.98
42067;BME280;27734;47.028;28.820;2023-02-08T07:56:53;103195.31;;;-4.17;70.84
42067;BME280;27734;47.028;28.820;2023-02-08T07:59:26;103203.78;;;-4.05;70.69
42067;BME280;27734;47.028;28.820;2023-02-08T08:01:58;103200.13;;;-3.94;70.86
42067;BME280;27734;47.028;28.820;2023-02-08T08:04:34;103204.66;;;-3.86;70.42
42067;BME280;27734;47.028;28.820;2023-02-08T08:07:07;103206.62;;;-3.77;71.07
42067;BME280;27734;47.028;28.820;2023-02-08T08:09:40;103199.47;;;-3.67;70.97
42067;BME280;27734;47.028;28.820;2023-02-08T08:12:13;103206.05;;;-3.56;71.06
42067;BME280;27734;47.028;28.820;2023-02-08T08:14:46;103211.20;;;-3.44;70.92
42067;BME280;27734;47.028;28.820;2023-02-08T08:17:21;103204.12;;;-3.39;70.31
42067;BME280;27734;47.028;28.820;2023-02-08T08:19:54;103204.73;;;-3.34;70.01
42067;BME280;27734;47.028;28.820;2023-02-08T08:22:26;103204.11;;;-3.26;70.12
42067;BME280;27734;47.028;28.820;2023-02-08T08:24:59;103205.88;;;-3.19;70.12
42067;BME280;27734;47.028;28.820;2023-02-08T08:27:32;103202.36;;;-3.07;69.08
42067;BME280;27734;47.028;28.820;2023-02-08T08:30:09;103199.39;;;-2.97;69.40
42067;BME280;27734;47.028;28.820;2023-02-08T08:32:42;103192.50;;;-2.91;69.99
42067;BME280;27734;47.028;28.820;2023-02-08T08:35:15;103201.23;;;-2.83;68.81
42067;BME280;27734;47.028;28.820;2023-02-08T08:37:47;103193.58;;;-2.76;69.02
42067;BME280;27734;47.028;28.820;2023-02-08T08:40:20;103206.13;;;-2.72;68.21
42067;BME280;27734;47.028;28.820;2023-02-08T08:42:53;103210.02;;;-2.68;68.31
42067;BME280;27734;47.028;28.820;2023-02-08T08:45:25;103205.89;;;-2.61;67.80
42067;BME280;27734;47.028;28.820;2023-02-08T08:47:58;103202.47;;;-2.54;67.11
42067;BME280;27734;47.028;28.820;2023-02-08T08:50:31;103207.80;;;-2.40;67.81
42067;BME280;27734;47.028;28.820;2023-02-08T08:53:04;103211.78;;;-2.29;69.50
42067;BME280;27734;47.028;28.820;2023-02-08T08:55:36;103212.11;;;-2.13;68.57
42067;BME280;27734;47.028;28.820;2023-02-08T08:58:09;103219.69;;;-2.07;68.24
42067;BME280;27734;47.028;28.820;2023-02-08T09:00:42;103219.88;;;-2.06;66.56
42067;BME280;27734;47.028;28.820;2023-02-08T09:03:14;103216.28;;;-2.01;66.92
42067;BME280;27734;47.028;28.820;2023-02-08T09:05:48;103225.70;;;-1.94;66.83
42067;BME280;27734;47.028;28.820;2023-02-08T09:08:20;103236.72;;;-1.95;66.03
42067;BME280;27734;47.028;28.820;2023-02-08T09:10:53;103228.77;;;-1.84;66.90
42067;BME280;27734;47.028;28.820;2023-02-08T09:13:28;103229.55;;;-1.77;65.22
42067;BME280;27734;47.028;28.820;2023-02-08T09:16:05;103218.58;;;-1.69;66.93
42067;BME280;27734;47.028;28.820;2023-02-08T09:18:38;103219.98;;;-1.51;66.13
42067;BME280;27734;47.028;28.820;2023-02-08T09:21:12;103220.31;;;-1.35;67.33
42067;BME280;27734;47.028;28.820;2023-02-08T09:23:47;103220.41;;;-1.21;66.84
42067;BME280;27734;47.028;28.820;2023-02-08T09:26:29;103224.14;;;-1.12;66.14
42067;BME280;27734;47.028;28.820;2023-02-08T09:29:03;103221.97;;;-1.01;66.00
42067;BME280;27734;47.028;28.820;2023-02-08T09:31:39;103217.59;;;-0.95;64.62
42067;BME280;27734;47.028;28.820;2023-02-08T09:34:12;103219.87;;;-0.84;64.22
42067;BME280;27734;47.028;28.820;2023-02-08T09:36:44;103219.36;;;-0.74;65.06
42067;BME280;27734;47.028;28.820;2023-02-08T09:39:19;103218.08;;;-0.70;64.41
42067;BME280;27734;47.028;28.820;2023-02-08T09:45:04;103213.49;;;-0.66;64.60
42067;BME280;27734;47.028;28.820;2023-02-08T09:47:45;103203.37;;;-0.64;64.21
42067;BME280;27734;47.028;28.820;2023-02-08T09:50:26;103211.09;;;-0.71;62.73
42067;BME280;27734;47.028;28.820;2023-02-08T09:53:12;103206.66;;;-0.73;63.87
42067;BME280;27734;47.028;28.820;2023-02-08T09:55:50;103220.84;;;-0.69;60.59
42067;BME280;27734;47.028;28.820;2023-02-08T09:58:28;103195.63;;;-0.64;60.91
42067;BME280;27734;47.028;28.820;2023-02-08T10:01:05;103200.48;;;-0.53;61.70
42067;BME280;27734;47.028;28.820;2023-02-08T10:03:44;103194.80;;;-0.43;61.17
42067;BME280;27734;47.028;28.820;2023-02-08T10:06:19;103202.00;;;-0.33;60.63
42067;BME280;27734;47.028;28.820;2023-02-08T10:08:53;103187.61;;;-0.31;61.00
42067;BME280;27734;47.028;28.820;2023-02-08T10:11:39;103205.30;;;-0.34;61.11
42067;BME280;27734;47.028;28.820;2023-02-08T10:17:41;103188.41;;;-0.11;60.39
42067;BME280;27734;47.028;28.820;2023-02-08T10:20:29;103177.52;;;-0.08;59.59
42067;BME280;27734;47.028;28.820;2023-02-08T10:26:19;103196.33;;;-0.02;58.01
42067;BME280;27734;47.028;28.820;2023-02-08T10:32:14;103193.95;;;-0.08;57.25
42067;BME280;27734;47.028;28.820;2023-02-08T10:34:49;103178.26;;;-0.02;59.56
42067;BME280;27734;47.028;28.820;2023-02-08T10:37:45;103187.67;;;-0.03;60.87
42067;BME280;27734;47.028;28.820;2023-02-08T10:40:28;103181.59;;;0.04;60.89
42067;BME280;27734;47.028;28.820;2023-02-08T10:43:18;103191.93;;;0.11;60.39
42067;BME280;27734;47.028;28.820;2023-02-08T10:46:04;103180.11;;;0.28;61.11
42067;BME280;27734;47.028;28.820;2023-02-08T10:48:58;103187.31;;;0.38;59.73
42067;BME280;27734;47.028;28.820;2023-02-08T10:51:49;103175.86;;;0.35;60.16
42067;BME280;27734;47.028;28.820;2023-02-08T10:54:30;103164.63;;;0.42;61.70
42067;BME280;27734;47.028;28.820;2023-02-08T10:57:17;103169.42;;;0.39;59.60
42067;BME280;27734;47.028;28.820;2023-02-08T11:00:12;103157.59;;;0.34;58.56
42067;BME280;27734;47.028;28.820;2023-02-08T11:03:10;103157.25;;;0.24;58.06
42067;BME280;27734;47.028;28.820;2023-02-08T11:06:05;103161.87;;;0.19;57.61
42067;BME280;27734;47.028;28.820;2023-02-08T11:09:29;103148.59;;;0.16;58.95
42067;BME280;27734;47.028;28.820;2023-02-08T11:12:21;103146.17;;;0.10;59.23
42067;BME280;27734;47.028;28.820;2023-02-08T11:15:03;103144.51;;;0.11;57.54
42067;BME280;27734;47.028;28.820;2023-02-08T11:17:54;103145.64;;;0.13;57.77
42067;BME280;27734;47.028;28.820;2023-02-08T11:20:38;103139.34;;;0.11;56.83
42067;BME280;27734;47.028;28.820;2023-02-08T11:23:24;103138.80;;;0.13;56.96
42067;BME280;27734;47.028;28.820;2023-02-08T11:26:31;103132.52;;;0.26;58.98
42067;BME280;27734;47.028;28.820;2023-02-08T11:29:14;103148.56;;;0.23;56.79
42067;BME280;27734;47.028;28.820;2023-02-08T11:32:13;103129.03;;;0.25;57.82
42067;BME280;27734;47.028;28.820;2023-02-08T11:35:18;103116.11;;;0.25;58.19
42067;BME280;27734;47.028;28.820;2023-02-08T11:38:04;103098.58;;;0.23;58.21
42067;BME280;27734;47.028;28.820;2023-02-08T11:40:44;103106.15;;;0.21;57.34
42067;BME280;27734;47.028;28.820;2023-02-08T11:43:27;103107.97;;;0.29;58.35
42067;BME280;27734;47.028;28.820;2023-02-08T11:46:09;103109.09;;;0.31;57.64
42067;BME280;27734;47.028;28.820;2023-02-08T11:48:57;103103.93;;;0.31;58.60
42067;BME280;27734;47.028;28.820;2023-02-08T11:51:35;103117.39;;;0.36;56.83
42067;BME280;27734;47.028;28.820;2023-02-08T11:54:33;103116.27;;;0.41;57.52
42067;BME280;27734;47.028;28.820;2023-02-08T11:57:18;103103.53;;;0.43;56.51
42067;BME280;27734;47.028;28.820;2023-02-08T12:00:17;103117.53;;;0.45;57.64
42067;BME280;27734;47.028;28.820;2023-02-08T12:03:04;103122.70;;;0.45;57.27
42067;BME280;27734;47.028;28.820;2023-02-08T12:05:48;103113.13;;;0.44;56.25
42067;BME280;27734;47.028;28.820;2023-02-08T12:08:35;103109.06;;;0.46;56.54
42067;BME280;27734;47.028;28.820;2023-02-08T12:11:30;103126.41;;;0.47;55.15
42067;BME280;27734;47.028;28.820;2023-02-08T12:14:39;103125.28;;;0.52;57.07
42067;BME280;27734;47.028;28.820;2023-02-08T12:17:36;103115.31;;;0.55;55.98
42067;BME280;27734;47.028;28.820;2023-02-08T12:20:37;103121.02;;;0.60;54.58
42067;BME280;27734;47.028;28.820;2023-02-08T12:23:36;103121.56;;;0.64;57.25
42067;BME280;27734;47.028;28.820;2023-02-08T12:26:19;103116.03;;;0.61;57.10
42067;BME280;27734;47.028;28.820;2023-02-08T12:29:07;103117.49;;;0.59;57.00
42067;BME280;27734;47.028;28.820;2023-02-08T12:31:58;103116.58;;;0.66;57.77
42067;BME280;27734;47.028;28.820;2023-02-08T12:34:46;103112.86;;;0.71;56.31
42067;BME280;27734;47.028;28.820;2023-02-08T12:37:33;103111.36;;;0.73;56.82
42067;BME280;27734;47.028;28.820;2023-02-08T12:40:37;103104.73;;;0.75;56.96
42067;BME280;27734;47.028;28.820;2023-02-08T12:43:51;103103.79;;;0.75;55.92
42067;BME280;27734;47.028;28.820;2023-02-08T12:46:52;103098.98;;;0.78;55.00
42067;BME280;27734;47.028;28.820;2023-02-08T12:49:49;103090.12;;;0.83;55.21
42067;BME280;27734;47.028;28.820;2023-02-08T12:52:32;103091.38;;;0.86;55.64
42067;BME280;27734;47.028;28.820;2023-02-08T12:55:16;103100.41;;;0.90;54.64
42067;BME280;27734;47.028;28.820;2023-02-08T12:57:56;103107.98;;;0.88;54.43
42067;BME280;27734;47.028;28.820;2023-02-08T13:00:33;103101.35;;;0.91;53.60
42067;BME280;27734;47.028;28.820;2023-02-08T13:03:14;103098.36;;;0.95;55.35
42067;BME280;27734;47.028;28.820;2023-02-08T13:05:51;103105.38;;;0.96;55.81
42067;BME280;27734;47.028;28.820;2023-02-08T13:08:35;103096.72;;;0.95;55.67
42067;BME280;27734;47.028;28.820;2023-02-08T13:11:17;103098.53;;;0.96;56.33
42067;BME280;27734;47.028;28.820;2023-02-08T13:13:57;103089.87;;;0.96;55.25
42067;BME280;27734;47.028;28.820;2023-02-08T13:16:42;103092.45;;;0.96;56.01
42067;BME280;27734;47.028;28.820;2023-02-08T13:19:26;103098.89;;;0.99;56.70
42067;BME280;27734;47.028;28.820;2023-02-08T13:22:05;103101.66;;;1.01;56.44
42067;BME280;27734;47.028;28.820;2023-02-08T13:24:43;103106.09;;;1.02;55.46
42067;BME280;27734;47.028;28.820;2023-02-08T13:27:34;103104.24;;;1.01;55.71
42067;BME280;27734;47.028;28.820;2023-02-08T13:30:17;103103.33;;;1.00;55.90
42067;BME280;27734;47.028;28.820;2023-02-08T13:32:56;103106.65;;;0.99;55.53
42067;BME280;27734;47.028;28.820;2023-02-08T13:35:45;103111.82;;;0.99;55.73
42067;BME280;27734;47.028;28.820;2023-02-08T13:38:29;103099.66;;;0.98;55.74
42067;BME280;27734;47.028;28.820;2023-02-08T13:41:16;103116.45;;;0.95;53.00
42067;BME280;27734;47.028;28.820;2023-02-08T13:43:53;103106.11;;;0.95;52.79
42067;BME280;27734;47.028;28.820;2023-02-08T13:46:38;103119.98;;;0.95;54.37
42067;BME280;27734;47.028;28.820;2023-02-08T13:49:50;103106.88;;;0.94;52.96
42067;BME280;27734;47.028;28.820;2023-02-08T13:52:48;103115.55;;;0.94;54.06
42067;BME280;27734;47.028;28.820;2023-02-08T13:58:43;103120.73;;;0.87;54.55